Time;durP1;ratioP1;P1;durP2;ratioP2;P2;SDS_P1;SDS_P2;PMS_P1;PMS_P2;Temp;Humidity;BMP_temperature;BMP_pressure;BME280_temperature;BME280_humidity;BME280_pressure;Samples;Min_cycle;Max_cycle;Signal;HPM_P1;HPM_P2
2022/01/07 00:01:09;;;;;;;9.60;7.00;;;5.40;52.10;;;;;;5075289;28;20456;-87
2022/01/07 00:03:37;;;;;;;14.60;9.20;;;5.40;52.00;;;;;;5077226;28;20543;-88
2022/01/07 00:06:04;;;;;;;15.80;8.63;;;5.40;52.30;;;;;;5057817;28;20463;-88
2022/01/07 00:08:32;;;;;;;27.23;8.90;;;5.30;53.10;;;;;;5034177;28;20559;-89
2022/01/07 00:10:59;;;;;;;14.03;8.60;;;5.00;53.90;;;;;;5060204;28;20522;-89
2022/01/07 00:13:26;;;;;;;22.40;10.20;;;4.90;54.30;;;;;;5042538;28;20467;-86
2022/01/07 00:15:54;;;;;;;19.00;11.30;;;5.00;54.60;;;;;;5068521;28;20461;-89
2022/01/07 00:18:24;;;;;;;26.10;9.33;;;5.10;54.50;;;;;;5051747;28;20524;-88
2022/01/07 00:20:53;;;;;;;19.17;9.77;;;5.20;54.30;;;;;;5077575;28;20471;-88
2022/01/07 00:23:21;;;;;;;21.07;8.43;;;5.20;54.30;;;;;;5076931;28;20444;-85
2022/01/07 00:25:48;;;;;;;11.40;8.50;;;5.10;54.40;;;;;;5033467;28;20541;-87
2022/01/07 00:28:15;;;;;;;14.97;8.40;;;5.20;53.80;;;;;;5057310;28;20471;-88
2022/01/07 00:30:43;;;;;;;18.30;9.00;;;5.20;53.00;;;;;;5033070;28;20886;-89
2022/01/07 00:33:10;;;;;;;14.17;7.83;;;5.20;52.80;;;;;;5056961;28;20487;-87
2022/01/07 00:35:39;;;;;;;20.87;8.53;;;5.20;52.60;;;;;;5057121;28;20743;-88
2022/01/07 00:38:06;;;;;;;19.27;9.00;;;5.20;52.40;;;;;;5074504;28;20467;-88
2022/01/07 00:40:33;;;;;;;11.93;6.40;;;4.90;53.80;;;;;;5048383;28;20559;-86
2022/01/07 00:43:01;;;;;;;19.80;9.67;;;4.60;54.10;;;;;;5047327;28;20582;-87
2022/01/07 00:45:28;;;;;;;15.57;9.17;;;4.50;55.10;;;;;;5062929;28;20465;-90
2022/01/07 00:47:57;;;;;;;13.37;9.10;;;4.70;55.00;;;;;;5078803;28;20471;-87
2022/01/07 00:50:26;;;;;;;14.43;8.43;;;4.90;54.70;;;;;;5076561;28;20869;-88
2022/01/07 00:52:54;;;;;;;20.27;10.50;;;4.90;54.90;;;;;;5033570;28;20532;-88
2022/01/07 00:55:22;;;;;;;18.10;9.10;;;5.00;54.80;;;;;;5078515;28;20453;-87
2022/01/07 00:57:49;;;;;;;18.63;9.03;;;5.10;54.60;;;;;;5041868;28;20476;-88
2022/01/07 01:00:19;;;;;;;15.50;8.77;;;5.10;54.70;;;;;;5075165;28;20460;-88
2022/01/07 01:02:47;;;;;;;19.27;9.70;;;5.20;54.60;;;;;;5063407;28;20533;-89
2022/01/07 01:05:15;;;;;;;16.93;7.77;;;5.30;54.50;;;;;;5048384;28;20468;-88
2022/01/07 01:07:42;;;;;;;18.70;9.17;;;5.30;54.40;;;;;;5028093;28;20559;-88
2022/01/07 01:10:12;;;;;;;14.00;8.30;;;5.40;54.20;;;;;;5072728;28;20952;-88
2022/01/07 01:12:42;;;;;;;16.03;8.37;;;5.40;54.20;;;;;;5055602;28;20560;-88
2022/01/07 01:15:12;;;;;;;12.63;8.03;;;5.00;54.90;;;;;;5078611;28;20448;-88
2022/01/07 01:17:39;;;;;;;18.97;10.80;;;4.70;55.40;;;;;;5064002;28;21042;-88
2022/01/07 01:20:10;;;;;;;23.77;9.20;;;4.70;55.60;;;;;;5060733;28;21023;-88
2022/01/07 01:22:37;;;;;;;18.53;8.03;;;4.80;55.50;;;;;;5067480;28;20807;-88
2022/01/07 01:25:06;;;;;;;14.53;9.37;;;4.90;56.00;;;;;;5077387;28;20487;-88
2022/01/07 01:27:35;;;;;;;21.23;7.90;;;5.00;55.50;;;;;;5050220;28;20499;-88
2022/01/07 01:30:02;;;;;;;18.20;8.90;;;5.10;55.20;;;;;;5044412;28;20459;-91
2022/01/07 01:32:29;;;;;;;14.40;8.37;;;5.30;54.70;;;;;;5042625;28;20477;-89
2022/01/07 01:34:56;;;;;;;17.80;9.17;;;5.30;54.20;;;;;;5058489;28;21015;-88
2022/01/07 01:37:24;;;;;;;17.40;7.03;;;5.40;53.80;;;;;;5048372;28;20475;-88
2022/01/07 01:39:51;;;;;;;16.50;8.83;;;5.40;53.60;;;;;;5046790;28;20447;-88
2022/01/07 01:42:18;;;;;;;12.20;7.43;;;5.50;53.50;;;;;;5074991;28;20839;-89
2022/01/07 01:44:47;;;;;;;16.67;8.23;;;5.40;53.60;;;;;;5073979;28;20543;-88
2022/01/07 01:47:14;;;;;;;18.47;7.60;;;5.40;53.50;;;;;;5063655;28;20508;-88
2022/01/07 01:49:41;;;;;;;13.03;7.77;;;5.40;53.40;;;;;;5074433;28;20456;-88
2022/01/07 01:52:08;;;;;;;14.00;8.23;;;5.40;53.20;;;;;;5056437;28;20635;-89
2022/01/07 01:54:35;;;;;;;17.80;7.80;;;5.50;53.10;;;;;;5064159;28;20468;-90
2022/01/07 01:57:03;;;;;;;12.23;7.47;;;5.50;52.90;;;;;;5057181;28;20456;-89
2022/01/07 01:59:32;;;;;;;13.83;8.27;;;5.40;52.90;;;;;;5061860;28;20544;-89
2022/01/07 02:02:00;;;;;;;14.30;7.17;;;5.40;53.00;;;;;;5073517;28;20488;-88
2022/01/07 02:04:28;;;;;;;14.30;7.77;;;5.40;53.20;;;;;;5057217;28;20462;-89
2022/01/07 02:06:55;;;;;;;17.60;9.20;;;5.50;53.40;;;;;;5040603;28;20479;-87
2022/01/07 02:09:30;;;;;;;14.60;8.57;;;5.50;53.70;;;;;;5028556;28;20554;-89
2022/01/07 02:11:57;;;;;;;12.30;7.20;;;5.40;54.70;;;;;;5057636;28;20455;-88
2022/01/07 02:14:24;;;;;;;14.60;9.03;;;5.50;54.50;;;;;;5057386;28;20770;-87
2022/01/07 02:16:51;;;;;;;22.10;8.10;;;5.50;55.00;;;;;;5068238;28;20460;-88
2022/01/07 02:19:20;;;;;;;18.83;8.90;;;5.50;55.10;;;;;;5042393;28;20468;-87
2022/01/07 02:21:48;;;;;;;15.57;10.07;;;5.50;55.60;;;;;;5048501;28;20472;-88
2022/01/07 02:24:15;;;;;;;18.87;10.70;;;5.60;55.30;;;;;;5056996;28;20864;-89
2022/01/07 02:26:42;;;;;;;15.77;8.30;;;5.50;55.40;;;;;;5056233;28;20989;-88
2022/01/07 02:29:10;;;;;;;21.80;8.10;;;5.50;55.40;;;;;;5058639;28;20471;-88
2022/01/07 02:31:37;;;;;;;20.27;8.67;;;5.30;56.50;;;;;;5064656;28;20452;-87
2022/01/07 02:34:04;;;;;;;11.60;7.73;;;5.30;56.80;;;;;;5040457;28;20579;-89
2022/01/07 02:36:31;;;;;;;17.53;6.73;;;5.40;56.40;;;;;;5073135;28;20560;-87
2022/01/07 02:38:59;;;;;;;10.23;6.87;;;5.10;57.60;;;;;;5039711;28;20584;-90
2022/01/07 02:41:26;;;;;;;14.50;7.80;;;4.80;58.70;;;;;;5073656;28;20864;-87
2022/01/07 02:43:53;;;;;;;15.10;6.93;;;4.90;58.50;;;;;;5045673;28;20476;-87
2022/01/07 02:46:20;;;;;;;12.50;6.60;;;4.90;58.70;;;;;;5061749;28;20468;-88
2022/01/07 02:48:47;;;;;;;15.70;6.77;;;5.00;58.30;;;;;;5075078;28;20517;-87
2022/01/07 02:51:15;;;;;;;21.57;6.00;;;5.20;58.20;;;;;;5074010;28;20962;-88
2022/01/07 02:53:42;;;;;;;30.10;7.50;;;5.10;58.00;;;;;;5060191;28;20466;-87
2022/01/07 02:56:12;;;;;;;14.90;6.43;;;5.20;57.90;;;;;;5076492;28;20927;-88
2022/01/07 02:58:39;;;;;;;13.60;6.67;;;5.20;57.70;;;;;;5056732;28;20461;-89
2022/01/07 03:01:07;;;;;;;14.23;7.50;;;5.20;57.90;;;;;;5073033;28;20969;-87
2022/01/07 03:03:34;;;;;;;14.87;6.23;;;5.20;58.20;;;;;;5073050;28;20463;-87
2022/01/07 03:06:01;;;;;;;22.37;6.90;;;5.10;58.80;;;;;;5072916;28;20520;-88
2022/01/07 03:08:28;;;;;;;13.53;7.17;;;5.10;59.20;;;;;;5058373;28;21096;-87
2022/01/07 03:10:55;;;;;;;13.03;5.10;;;5.20;58.90;;;;;;5058616;28;20873;-89
2022/01/07 03:13:24;;;;;;;12.10;6.50;;;5.20;59.40;;;;;;5047630;28;20494;-87
2022/01/07 03:15:51;;;;;;;15.03;6.60;;;5.30;59.00;;;;;;5071311;28;20885;-87
2022/01/07 03:18:18;;;;;;;9.87;7.00;;;5.40;58.50;;;;;;5047952;28;20472;-87
2022/01/07 03:20:45;;;;;;;13.00;6.57;;;5.40;58.40;;;;;;5050838;28;20766;-86
2022/01/07 03:23:14;;;;;;;15.03;8.10;;;5.60;58.60;;;;;;5074268;28;20454;-89
2022/01/07 03:25:43;;;;;;;12.47;8.00;;;5.70;58.00;;;;;;5056376;28;20898;-88
2022/01/07 03:28:11;;;;;;;13.13;7.90;;;5.90;57.60;;;;;;5073431;28;20982;-89
2022/01/07 03:30:40;;;;;;;14.20;8.60;;;5.90;57.40;;;;;;5074620;28;20445;-88
2022/01/07 03:33:08;;;;;;;15.80;8.70;;;5.80;57.60;;;;;;5040192;28;20847;-88
2022/01/07 03:35:35;;;;;;;13.30;8.03;;;5.90;57.50;;;;;;5060726;28;20464;-90
2022/01/07 03:38:03;;;;;;;16.60;8.20;;;6.00;57.10;;;;;;5056543;28;20929;-87
2022/01/07 03:40:30;;;;;;;13.97;8.10;;;6.10;57.30;;;;;;5069271;28;21162;-87
2022/01/07 03:42:57;;;;;;;17.80;7.43;;;6.00;56.30;;;;;;5073043;28;20544;-87
2022/01/07 03:45:24;;;;;;;16.70;8.27;;;5.90;56.50;;;;;;5056054;28;20453;-88
2022/01/07 03:47:53;;;;;;;13.00;6.50;;;5.70;57.20;;;;;;5071328;28;20488;-87
2022/01/07 03:50:23;;;;;;;12.80;7.30;;;5.70;57.20;;;;;;5039470;28;20538;-87
2022/01/07 03:52:51;;;;;;;7.53;5.83;;;5.80;57.20;;;;;;5071606;28;20703;-87
2022/01/07 03:55:21;;;;;;;12.03;6.00;;;5.80;56.90;;;;;;5039067;28;20492;-89
2022/01/07 03:57:48;;;;;;;14.67;6.60;;;5.70;56.80;;;;;;5055436;28;20456;-88
2022/01/07 04:00:20;;;;;;;14.87;6.10;;;5.80;56.60;;;;;;5055059;28;20487;-88
2022/01/07 04:02:47;;;;;;;10.70;6.23;;;5.70;56.50;;;;;;5045365;28;20867;-86
2022/01/07 04:05:19;;;;;;;12.10;6.93;;;5.40;57.40;;;;;;5054731;28;20541;-88
2022/01/07 04:07:46;;;;;;;10.53;5.37;;;5.40;58.00;;;;;;5040801;28;20463;-88
2022/01/07 04:10:13;;;;;;;13.23;7.13;;;5.40;58.30;;;;;;5073040;28;20540;-88
2022/01/07 04:12:40;;;;;;;19.33;7.87;;;5.50;58.20;;;;;;5076747;28;21191;-88
2022/01/07 04:15:08;;;;;;;10.70;5.97;;;5.60;57.50;;;;;;5059308;28;20505;-89
2022/01/07 04:17:36;;;;;;;8.53;6.53;;;5.50;57.80;;;;;;5077781;28;21378;-90
2022/01/07 04:20:05;;;;;;;16.37;6.83;;;5.50;58.00;;;;;;5065724;28;20546;-90
2022/01/07 04:22:34;;;;;;;14.27;6.47;;;5.30;58.80;;;;;;5077554;28;20841;-87
2022/01/07 04:25:01;;;;;;;16.50;6.80;;;5.10;59.30;;;;;;5067981;28;20460;-88
2022/01/07 04:27:28;;;;;;;14.17;7.23;;;5.10;59.80;;;;;;5078066;28;20503;-88
2022/01/07 04:29:55;;;;;;;24.87;6.37;;;5.30;59.70;;;;;;5060055;28;20480;-87
2022/01/07 04:32:22;;;;;;;12.10;5.67;;;5.40;59.20;;;;;;5074853;28;20927;-87
2022/01/07 04:34:49;;;;;;;21.73;7.40;;;5.50;58.60;;;;;;5074885;28;20497;-88
2022/01/07 04:37:17;;;;;;;15.10;6.70;;;5.50;58.60;;;;;;5074573;28;20575;-89
2022/01/07 04:39:45;;;;;;;10.77;6.53;;;5.60;58.50;;;;;;5058382;28;20891;-87
2022/01/07 04:42:12;;;;;;;13.10;6.90;;;5.60;58.30;;;;;;5075779;28;20491;-89
2022/01/07 04:44:40;;;;;;;13.33;6.90;;;5.70;58.10;;;;;;5068372;28;20543;-88
2022/01/07 04:47:08;;;;;;;11.00;6.10;;;5.80;57.90;;;;;;5077565;28;20488;-87
2022/01/07 04:49:35;;;;;;;8.77;5.50;;;5.80;57.60;;;;;;5076792;28;20455;-87
2022/01/07 04:52:03;;;;;;;9.70;5.53;;;5.80;57.90;;;;;;5070214;28;20452;-87
2022/01/07 04:54:30;;;;;;;13.20;6.10;;;5.90;57.60;;;;;;5075033;28;20595;-87
2022/01/07 04:56:59;;;;;;;11.43;6.60;;;6.10;57.20;;;;;;5042733;28;20827;-86
2022/01/07 04:59:26;;;;;;;15.50;6.67;;;6.20;56.80;;;;;;5078057;28;20824;-86
2022/01/07 05:01:54;;;;;;;11.60;6.50;;;6.30;56.70;;;;;;5078082;28;20448;-88
2022/01/07 05:04:21;;;;;;;16.10;8.37;;;6.30;57.10;;;;;;5060361;28;20453;-86
2022/01/07 05:06:48;;;;;;;13.83;6.10;;;6.20;57.00;;;;;;5077227;28;20452;-87
2022/01/07 05:09:17;;;;;;;18.50;7.57;;;6.10;57.30;;;;;;5055900;28;20715;-87
2022/01/07 05:11:44;;;;;;;10.10;6.33;;;6.00;57.70;;;;;;5074721;28;20498;-89
2022/01/07 05:14:13;;;;;;;12.23;6.67;;;6.00;57.60;;;;;;5074897;28;20575;-88
2022/01/07 05:16:40;;;;;;;15.90;6.50;;;5.90;57.80;;;;;;5071711;28;20545;-88
2022/01/07 05:19:07;;;;;;;10.90;6.00;;;5.90;58.10;;;;;;5074610;28;20549;-87
2022/01/07 05:21:34;;;;;;;11.07;5.90;;;5.80;58.20;;;;;;5053940;28;20458;-88
2022/01/07 05:24:01;;;;;;;13.87;6.77;;;5.80;58.50;;;;;;5075316;28;20489;-86
2022/01/07 05:26:28;;;;;;;10.67;7.13;;;5.90;58.20;;;;;;5071070;28;20944;-86
2022/01/07 05:28:56;;;;;;;11.20;5.90;;;6.00;58.00;;;;;;5083668;28;20484;-86
2022/01/07 05:31:24;;;;;;;25.30;7.03;;;5.80;58.00;;;;;;5059390;28;20461;-86
2022/01/07 05:33:52;;;;;;;16.57;6.73;;;5.70;58.00;;;;;;5076905;28;20478;-86
2022/01/07 05:36:20;;;;;;;12.13;7.10;;;5.80;58.30;;;;;;5075938;28;20454;-86
2022/01/07 05:38:48;;;;;;;11.27;7.73;;;5.90;57.80;;;;;;5073883;28;20475;-88
2022/01/07 05:41:16;;;;;;;18.57;7.60;;;5.70;58.10;;;;;;5076096;28;20444;-86
2022/01/07 05:43:43;;;;;;;9.87;6.00;;;5.70;57.90;;;;;;5073856;28;20458;-85
2022/01/07 05:46:14;;;;;;;15.17;6.97;;;5.60;58.60;;;;;;5071996;28;20460;-86
2022/01/07 05:48:44;;;;;;;12.73;6.23;;;5.60;58.60;;;;;;5076222;28;20501;-86
2022/01/07 05:51:11;;;;;;;7.07;4.90;;;5.60;58.50;;;;;;5076397;28;20467;-86
2022/01/07 05:53:38;;;;;;;4.90;3.30;;;5.60;58.40;;;;;;5073314;28;20791;-86
2022/01/07 05:56:06;;;;;;;10.40;5.70;;;5.50;58.40;;;;;;5077053;28;20451;-86
2022/01/07 05:58:33;;;;;;;12.30;6.43;;;5.20;59.20;;;;;;5074538;28;20833;-87
2022/01/07 06:01:00;;;;;;;9.83;5.70;;;5.40;59.50;;;;;;5053753;28;20461;-87
2022/01/07 06:03:28;;;;;;;10.23;5.93;;;5.30;59.00;;;;;;5075744;28;20448;-86
2022/01/07 06:05:56;;;;;;;15.00;5.80;;;5.40;58.80;;;;;;5071856;28;20458;-85
2022/01/07 06:08:23;;;;;;;14.43;7.93;;;5.40;58.80;;;;;;5068868;28;20840;-86
2022/01/07 06:10:50;;;;;;;12.13;6.47;;;5.50;58.70;;;;;;5069754;28;20974;-86
2022/01/07 06:13:17;;;;;;;14.57;6.17;;;5.60;58.00;;;;;;5072853;28;20479;-86
2022/01/07 06:15:44;;;;;;;9.37;7.23;;;5.50;58.30;;;;;;5070404;28;20483;-87
2022/01/07 06:18:11;;;;;;;12.40;5.83;;;5.60;58.30;;;;;;5070787;28;20487;-86
2022/01/07 06:20:38;;;;;;;13.20;5.70;;;5.40;58.30;;;;;;5054662;28;20955;-88
2022/01/07 06:23:06;;;;;;;12.67;6.57;;;5.40;58.40;;;;;;5069740;28;20585;-85
2022/01/07 06:25:33;;;;;;;10.37;6.30;;;5.30;58.50;;;;;;5072046;28;20451;-86
2022/01/07 06:28:00;;;;;;;11.70;6.20;;;5.40;58.70;;;;;;5069618;28;20469;-86
2022/01/07 06:30:28;;;;;;;10.20;5.97;;;5.40;58.40;;;;;;5052033;28;20746;-85
2022/01/07 06:32:55;;;;;;;10.77;4.97;;;5.30;58.60;;;;;;5073452;28;20464;-85
2022/01/07 06:35:22;;;;;;;13.13;6.90;;;5.20;58.80;;;;;;5071857;28;20476;-88
2022/01/07 06:37:49;;;;;;;12.03;8.37;;;4.70;59.90;;;;;;5071788;28;20464;-86
2022/01/07 06:40:17;;;;;;;19.87;7.97;;;4.30;60.90;;;;;;5069804;28;20820;-86
2022/01/07 06:42:45;;;;;;;16.80;7.67;;;4.30;62.10;;;;;;5070732;28;20452;-85
2022/01/07 06:45:12;;;;;;;11.90;5.90;;;4.50;62.00;;;;;;5071977;28;20447;-85
2022/01/07 06:47:39;;;;;;;19.73;8.87;;;4.70;60.90;;;;;;5067281;28;20480;-88
2022/01/07 06:50:08;;;;;;;10.70;6.57;;;5.00;60.60;;;;;;5069285;28;20458;-86
2022/01/07 06:52:35;;;;;;;14.63;7.53;;;4.90;59.80;;;;;;5077293;28;20456;-88
2022/01/07 06:55:02;;;;;;;16.50;9.93;;;5.00;60.40;;;;;;5070537;28;20479;-86
2022/01/07 06:57:30;;;;;;;12.67;7.50;;;5.20;59.70;;;;;;5071600;28;20546;-86
2022/01/07 06:59:58;;;;;;;15.97;7.67;;;5.40;59.30;;;;;;5067621;28;20990;-86
2022/01/07 07:02:25;;;;;;;14.90;7.97;;;5.40;58.60;;;;;;5075539;28;20452;-84
2022/01/07 07:04:52;;;;;;;20.00;7.67;;;5.40;58.60;;;;;;5069017;28;20461;-85
2022/01/07 07:07:19;;;;;;;20.90;7.20;;;5.40;58.90;;;;;;5055816;28;20510;-87
2022/01/07 07:09:46;;;;;;;14.53;7.77;;;5.50;58.70;;;;;;5051443;28;20615;-87
2022/01/07 07:12:13;;;;;;;9.70;6.30;;;5.60;58.30;;;;;;5072398;28;20449;-86
2022/01/07 07:14:42;;;;;;;16.27;8.40;;;5.70;57.70;;;;;;5070023;28;20476;-87
2022/01/07 07:17:10;;;;;;;13.43;6.47;;;5.60;58.10;;;;;;5069384;28;20943;-86
2022/01/07 07:19:38;;;;;;;21.17;7.77;;;5.60;58.10;;;;;;5067227;28;20817;-88
2022/01/07 07:22:05;;;;;;;11.33;7.03;;;5.50;58.50;;;;;;5055865;28;20838;-87
2022/01/07 07:24:32;;;;;;;14.63;7.37;;;5.30;58.70;;;;;;5041663;28;21155;-86
2022/01/07 07:26:59;;;;;;;10.57;7.10;;;5.60;59.00;;;;;;5071092;28;20467;-86
2022/01/07 07:29:26;;;;;;;7.80;6.33;;;5.60;58.40;;;;;;5066148;28;20460;-86
2022/01/07 07:31:57;;;;;;;13.30;7.30;;;5.60;57.90;;;;;;5072979;28;20569;-86
2022/01/07 07:37:14;;;;;;;29.63;6.60;;;5.70;58.10;;;;;;5058716;28;20528;-86
2022/01/07 07:39:41;;;;;;;13.63;7.43;;;5.30;58.40;;;;;;5073724;28;20557;-87
2022/01/07 07:42:08;;;;;;;10.67;6.37;;;5.40;58.90;;;;;;5074975;28;20467;-85
2022/01/07 07:44:38;;;;;;;20.67;7.80;;;5.50;58.70;;;;;;5055125;28;20507;-85
2022/01/07 07:47:07;;;;;;;14.83;7.67;;;5.70;58.50;;;;;;5066391;28;20467;-87
2022/01/07 07:49:34;;;;;;;16.63;7.90;;;5.70;57.60;;;;;;5037483;28;20967;-88
2022/01/07 07:52:01;;;;;;;11.93;7.30;;;5.30;57.90;;;;;;5051526;28;20973;-87
2022/01/07 07:54:28;;;;;;;12.07;7.30;;;5.30;58.80;;;;;;5056889;28;20559;-87
2022/01/07 07:56:57;;;;;;;11.83;7.33;;;5.30;58.90;;;;;;5074445;28;20458;-88
2022/01/07 07:59:24;;;;;;;12.90;8.10;;;5.40;58.60;;;;;;5041513;28;20462;-87
2022/01/07 08:01:51;;;;;;;14.37;7.03;;;5.50;58.50;;;;;;5057381;28;21019;-87
2022/01/07 08:04:21;;;;;;;13.63;7.00;;;5.60;57.90;;;;;;5074174;28;20470;-88
2022/01/07 08:06:48;;;;;;;20.40;7.80;;;5.50;57.80;;;;;;5072185;28;20843;-85
2022/01/07 08:09:16;;;;;;;19.70;10.77;;;5.70;57.70;;;;;;5072636;28;20468;-87
2022/01/07 08:11:51;;;;;;;8.70;5.50;;;5.80;57.50;;;;;;5070723;28;20448;-86
2022/01/07 08:17:03;;;;;;;10.57;6.03;;;5.60;57.10;;;;;;5073324;28;20597;-87
2022/01/07 08:19:32;;;;;;;10.73;5.57;;;5.80;57.40;;;;;;5072034;28;20455;-87
2022/01/07 08:21:59;;;;;;;10.53;6.00;;;5.60;57.30;;;;;;5073709;28;20962;-88
2022/01/07 08:24:26;;;;;;;13.83;6.70;;;5.50;57.10;;;;;;5070326;28;21034;-86
2022/01/07 08:26:53;;;;;;;9.30;5.53;;;5.50;57.80;;;;;;5072916;28;21009;-86
2022/01/07 08:29:23;;;;;;;6.70;6.00;;;5.60;57.80;;;;;;5072921;28;20571;-86
2022/01/07 08:34:55;;;;;;;10.20;6.03;;;6.00;57.10;;;;;;5073528;28;20485;-85
2022/01/07 08:37:27;;;;;;;9.17;6.07;;;5.80;55.90;;;;;;5070647;28;20478;-88
2022/01/07 08:39:55;;;;;;;10.00;3.57;;;5.90;56.60;;;;;;5074334;28;21006;-87
2022/01/07 08:42:24;;;;;;;11.57;6.23;;;6.00;56.10;;;;;;5073515;28;20500;-87
2022/01/07 08:44:53;;;;;;;11.63;5.87;;;5.70;56.70;;;;;;5075207;28;20544;-89
2022/01/07 08:47:21;;;;;;;4.77;4.37;;;5.70;56.60;;;;;;5072800;28;21002;-88
2022/01/07 08:49:51;;;;;;;11.83;5.83;;;5.70;56.30;;;;;;5070590;28;20475;-85
2022/01/07 08:52:19;;;;;;;13.47;6.73;;;5.60;56.70;;;;;;5051490;28;20453;-86
2022/01/07 08:54:46;;;;;;;6.00;4.37;;;5.70;56.50;;;;;;5046794;28;20962;-87
2022/01/07 08:57:13;;;;;;;9.33;5.70;;;5.60;55.70;;;;;;5072198;28;20461;-89
2022/01/07 08:59:40;;;;;;;9.10;5.77;;;5.60;56.30;;;;;;5073053;28;20463;-87
2022/01/07 09:02:08;;;;;;;9.83;5.27;;;5.60;56.00;;;;;;5073962;28;20452;-88
2022/01/07 09:04:35;;;;;;;8.10;4.80;;;5.70;56.40;;;;;;5071602;28;20464;-87
2022/01/07 09:07:03;;;;;;;7.20;4.90;;;5.60;55.90;;;;;;5069918;28;20492;-87
2022/01/07 09:09:30;;;;;;;6.37;4.57;;;5.50;56.70;;;;;;5073435;28;20462;-88
2022/01/07 09:11:57;;;;;;;11.50;4.17;;;5.60;56.70;;;;;;5071072;28;20459;-87
2022/01/07 09:14:24;;;;;;;6.97;5.20;;;5.40;57.40;;;;;;5069746;28;20526;-87
2022/01/07 09:16:51;;;;;;;7.70;4.90;;;5.50;57.80;;;;;;5070572;28;20881;-89
2022/01/07 09:19:18;;;;;;;8.30;5.40;;;5.50;57.50;;;;;;5073063;28;20480;-88
2022/01/07 09:21:45;;;;;;;8.03;5.53;;;5.70;57.20;;;;;;5069536;28;20456;-88
2022/01/07 09:24:14;;;;;;;7.60;4.40;;;5.90;57.10;;;;;;5053134;28;20923;-87
2022/01/07 09:26:41;;;;;;;10.30;4.80;;;5.60;56.60;;;;;;5052334;28;20961;-87
2022/01/07 09:29:08;;;;;;;6.63;4.10;;;5.10;57.90;;;;;;5073255;28;20570;-88
2022/01/07 09:31:35;;;;;;;10.03;4.03;;;5.30;58.10;;;;;;5072078;28;20460;-88
2022/01/07 09:34:02;;;;;;;10.83;5.00;;;5.30;57.60;;;;;;5073885;28;20947;-89
2022/01/07 09:36:29;;;;;;;6.60;3.80;;;5.60;57.50;;;;;;5066556;28;20460;-87
2022/01/07 09:38:57;;;;;;;12.57;5.17;;;5.70;56.60;;;;;;5071528;28;20468;-88
2022/01/07 09:41:25;;;;;;;8.10;4.63;;;5.50;57.00;;;;;;5053302;28;20460;-88
2022/01/07 09:43:53;;;;;;;7.53;4.67;;;5.70;57.50;;;;;;5071900;28;20939;-88
2022/01/07 09:46:20;;;;;;;5.87;4.63;;;6.00;57.10;;;;;;5075283;28;20484;-87
2022/01/07 09:48:47;;;;;;;10.33;5.27;;;6.00;56.80;;;;;;5077253;28;20472;-89
2022/01/07 09:51:15;;;;;;;8.00;4.77;;;5.70;57.00;;;;;;5056098;28;20456;-88
2022/01/07 09:53:43;;;;;;;5.50;3.90;;;5.80;57.50;;;;;;5069133;28;20487;-88
2022/01/07 09:56:11;;;;;;;6.27;4.27;;;5.40;57.50;;;;;;5074797;28;20869;-88
2022/01/07 09:58:40;;;;;;;7.13;4.80;;;5.30;58.40;;;;;;5075660;28;20472;-88
2022/01/07 10:01:10;;;;;;;7.30;5.40;;;5.20;59.00;;;;;;5060376;28;20464;-90
2022/01/07 10:03:39;;;;;;;9.67;5.13;;;5.30;59.50;;;;;;5078360;28;20550;-88
2022/01/07 10:06:18;;;;;;;5.67;4.73;;;5.60;59.20;;;;;;5075895;28;20475;-88
2022/01/07 10:08:47;;;;;;;12.10;5.60;;;5.80;58.60;;;;;;5077843;28;20975;-88
2022/01/07 10:11:18;;;;;;;20.67;9.93;;;6.00;58.00;;;;;;5057020;28;20457;-89
2022/01/07 10:13:52;;;;;;;4.80;3.53;;;5.80;58.00;;;;;;5077321;28;20550;-90
2022/01/07 10:16:21;;;;;;;9.93;4.73;;;5.50;58.60;;;;;;5058599;28;20478;-88
2022/01/07 10:18:48;;;;;;;8.93;5.40;;;5.10;59.90;;;;;;5072846;28;20566;-89
2022/01/07 10:21:17;;;;;;;11.27;6.37;;;5.10;60.80;;;;;;5073097;28;20440;-89
2022/01/07 10:23:45;;;;;;;10.60;5.23;;;5.20;61.00;;;;;;5076318;28;20586;-88
2022/01/07 10:26:16;;;;;;;9.97;5.30;;;5.40;60.50;;;;;;5058038;28;20453;-89
2022/01/07 10:28:44;;;;;;;6.97;3.67;;;5.40;60.50;;;;;;5058832;28;20518;-89
2022/01/07 10:31:20;;;;;;;16.17;6.30;;;5.30;60.40;;;;;;5078587;28;20524;-88
2022/01/07 10:33:49;;;;;;;8.13;5.33;;;5.20;61.30;;;;;;5078066;28;20455;-88
2022/01/07 10:36:21;;;;;;;11.60;4.77;;;5.40;61.20;;;;;;5077425;28;20468;-89
2022/01/07 10:38:51;;;;;;;12.90;5.90;;;5.40;61.30;;;;;;5055186;28;20589;-88
2022/01/07 10:41:19;;;;;;;15.53;6.77;;;5.50;61.20;;;;;;5084740;28;20485;-88
2022/01/07 10:43:47;;;;;;;10.80;5.30;;;5.70;61.10;;;;;;5081889;28;20480;-88
2022/01/07 10:46:20;;;;;;;17.30;10.10;;;6.10;60.40;;;;;;5076966;28;20506;-88
2022/01/07 10:48:50;;;;;;;18.50;7.97;;;6.20;58.80;;;;;;5075095;28;20470;-87
2022/01/07 10:51:19;;;;;;;8.00;5.73;;;6.00;59.60;;;;;;5075770;28;20480;-89
2022/01/07 10:53:50;;;;;;;8.50;5.33;;;6.10;59.40;;;;;;5061309;28;20535;-88
2022/01/07 10:56:20;;;;;;;9.10;5.23;;;6.20;59.60;;;;;;5057013;28;20567;-89
2022/01/07 10:59:09;;;;;;;6.93;5.93;;;6.50;59.10;;;;;;5075875;28;20472;-88
2022/01/07 11:01:43;;;;;;;12.90;6.10;;;6.50;58.50;;;;;;5078227;28;20547;-89
2022/01/07 11:04:13;;;;;;;7.37;4.90;;;6.40;58.70;;;;;;5072139;28;20467;-89
2022/01/07 11:06:40;;;;;;;9.20;6.10;;;6.60;58.70;;;;;;5075578;28;20486;-88
2022/01/07 11:09:09;;;;;;;7.20;4.90;;;6.50;58.30;;;;;;5069719;28;20479;-86
2022/01/07 11:11:46;;;;;;;8.37;4.57;;;6.50;58.60;;;;;;5070012;28;20843;-88
2022/01/07 11:14:17;;;;;;;4.83;3.13;;;6.60;58.50;;;;;;5055942;28;20554;-87
2022/01/07 11:16:46;;;;;;;6.80;4.10;;;6.50;57.80;;;;;;5071360;28;20591;-89
2022/01/07 11:19:17;;;;;;;8.13;3.90;;;6.50;58.60;;;;;;5072236;28;21000;-90
2022/01/07 11:21:50;;;;;;;10.20;4.37;;;6.30;59.10;;;;;;5074901;28;20443;-87
2022/01/07 11:24:42;;;;;;;24.20;9.83;;;6.30;59.00;;;;;;5072670;28;20456;-88
2022/01/07 11:27:11;;;;;;;9.40;5.10;;;6.30;59.10;;;;;;5051949;28;21089;-88
2022/01/07 11:29:51;;;;;;;7.63;4.43;;;6.30;59.40;;;;;;5069836;28;20452;-87
2022/01/07 11:32:34;;;;;;;10.00;6.03;;;6.40;59.40;;;;;;5069826;28;20502;-87
2022/01/07 11:35:45;;;;;;;12.37;7.50;;;6.60;59.60;;;;;;5053200;28;20821;-88
2022/01/07 11:38:38;;;;;;;9.90;8.90;;;6.80;59.30;;;;;;5070446;28;20475;-89
2022/01/07 11:41:15;;;;;;;7.57;3.90;;;6.90;58.20;;;;;;5058895;28;20452;-89
2022/01/07 11:43:44;;;;;;;6.57;5.53;;;6.70;58.20;;;;;;5072026;28;20495;-88
2022/01/07 11:46:24;;;;;;;8.30;4.50;;;6.60;58.90;;;;;;5072775;28;20534;-88
2022/01/07 11:48:54;;;;;;;5.20;3.50;;;6.50;58.80;;;;;;5051399;28;20471;-88
2022/01/07 11:51:21;;;;;;;11.27;5.17;;;6.30;59.30;;;;;;5055627;28;20449;-87
2022/01/07 11:54:06;;;;;;;8.30;4.77;;;6.30;59.80;;;;;;5056347;28;21380;-87
2022/01/07 11:56:35;;;;;;;11.70;6.07;;;6.50;59.20;;;;;;5072134;28;20471;-88
2022/01/07 11:59:30;;;;;;;6.60;4.10;;;6.70;58.90;;;;;;5070567;28;20471;-88
2022/01/07 12:02:04;;;;;;;7.10;4.93;;;6.60;58.50;;;;;;5056609;28;20475;-88
2022/01/07 12:04:34;;;;;;;9.53;5.50;;;6.40;58.80;;;;;;5071878;28;20491;-88
2022/01/07 12:07:06;;;;;;;5.93;5.13;;;6.40;58.80;;;;;;5069558;28;20562;-88
2022/01/07 12:09:38;;;;;;;10.70;5.43;;;6.20;59.60;;;;;;5067353;28;21020;-87
2022/01/07 12:12:10;;;;;;;9.47;5.40;;;6.20;59.20;;;;;;5075316;28;20463;-86
2022/01/07 12:14:41;;;;;;;10.90;5.43;;;6.10;59.10;;;;;;5069634;28;20456;-88
2022/01/07 12:17:14;;;;;;;9.20;6.37;;;6.10;59.30;;;;;;5072424;28;20478;-88
2022/01/07 12:20:18;;;;;;;9.13;5.70;;;6.30;59.40;;;;;;5076047;28;20442;-88
2022/01/07 12:22:52;;;;;;;9.20;6.50;;;6.50;59.50;;;;;;5070790;28;20522;-88
2022/01/07 12:25:20;;;;;;;21.60;9.23;;;6.60;58.90;;;;;;5052045;28;20881;-86
2022/01/07 12:27:47;;;;;;;7.13;5.37;;;6.70;58.90;;;;;;5067181;28;20556;-87
2022/01/07 12:30:15;;;;;;;8.53;3.83;;;6.60;58.30;;;;;;5068170;28;20519;-87
2022/01/07 12:32:42;;;;;;;4.07;3.20;;;6.40;58.70;;;;;;5054293;28;20461;-88
2022/01/07 12:35:11;;;;;;;3.20;2.90;;;6.40;58.70;;;;;;5074787;28;20554;-89
2022/01/07 12:37:39;;;;;;;4.77;3.93;;;6.40;59.00;;;;;;5074376;28;20525;-88
2022/01/07 12:40:10;;;;;;;4.20;3.80;;;6.30;59.10;;;;;;5072975;28;20909;-87
2022/01/07 12:42:40;;;;;;;7.37;5.70;;;6.30;58.60;;;;;;5083405;28;20452;-87
2022/01/07 12:45:13;;;;;;;7.60;4.03;;;6.50;59.30;;;;;;5043060;28;20456;-89
2022/01/07 12:47:40;;;;;;;5.33;4.23;;;6.50;59.40;;;;;;5058386;28;20488;-86
2022/01/07 12:50:08;;;;;;;7.30;4.30;;;6.60;59.50;;;;;;5061752;28;20607;-87
2022/01/07 12:52:37;;;;;;;6.80;4.70;;;6.60;59.80;;;;;;5066560;28;20515;-88
2022/01/07 12:55:09;;;;;;;15.23;6.97;;;6.80;59.20;;;;;;5047570;28;20581;-86
2022/01/07 12:57:42;;;;;;;4.00;3.27;;;6.60;58.30;;;;;;5043108;28;20476;-89
2022/01/07 13:00:16;;;;;;;11.47;8.23;;;6.40;58.80;;;;;;5057958;28;20463;-88
2022/01/07 13:02:45;;;;;;;12.00;5.77;;;6.40;59.40;;;;;;5075247;28;20483;-88
2022/01/07 13:05:18;;;;;;;5.30;3.93;;;6.50;59.60;;;;;;5041045;28;22623;-90
2022/01/07 13:07:47;;;;;;;3.30;3.00;;;6.10;59.20;;;;;;5072597;28;20511;-88